sensor_id;sensor_type;location;lat;lon;timestamp;pressure;altitude;pressure_sealevel;temperature;humidity
70925;BME280;58577;52.410;13.242;2022-12-29T00:02:45;-12436.94;;;6.07;100.00
70925;BME280;58577;52.410;13.242;2022-12-29T00:05:31;-12435.97;;;6.02;100.00
70925;BME280;58577;52.410;13.242;2022-12-29T00:08:17;-12438.31;;;6.15;100.00
70925;BME280;58577;52.410;13.242;2022-12-29T00:11:03;-12438.22;;;6.15;100.00
70925;BME280;58577;52.410;13.242;2022-12-29T00:13:49;-12437.59;;;6.11;100.00
70925;BME280;58577;52.410;13.242;2022-12-29T00:16:53;-12439.56;;;6.22;100.00
70925;BME280;58577;52.410;13.242;2022-12-29T00:19:39;-12440.19;;;6.26;100.00
70925;BME280;58577;52.410;13.242;2022-12-29T00:22:44;-12441.28;;;6.32;100.00
70925;BME280;58577;52.410;13.242;2022-12-29T00:25:48;-12441.44;;;6.33;100.00
70925;BME280;58577;52.410;13.242;2022-12-29T00:28:52;-12442.91;;;6.41;100.00
70925;BME280;58577;52.410;13.242;2022-12-29T00:31:56;-12442.09;;;6.37;100.00
70925;BME280;58577;52.410;13.242;2022-12-29T00:35:02;-12442.16;;;6.37;100.00
70925;BME280;58577;52.410;13.242;2022-12-29T00:37:55;-12442.72;;;6.40;100.00
70925;BME280;58577;52.410;13.242;2022-12-29T00:41:01;-12441.19;;;6.32;100.00
70925;BME280;58577;52.410;13.242;2022-12-29T00:44:06;-12439.28;;;6.21;100.00
70925;BME280;58577;52.410;13.242;2022-12-29T00:46:53;-12439.47;;;6.22;100.00
70925;BME280;58577;52.410;13.242;2022-12-29T00:49:38;-12439.47;;;6.22;100.00
70925;BME280;58577;52.410;13.242;2022-12-29T00:52:24;-12439.84;;;6.24;100.00
70925;BME280;58577;52.410;13.242;2022-12-29T00:55:10;-12440.91;;;6.30;100.00
70925;BME280;58577;52.410;13.242;2022-12-29T00:57:57;-12439.19;;;6.20;100.00
70925;BME280;58577;52.410;13.242;2022-12-29T01:00:43;-12438.94;;;6.19;100.00
70925;BME280;58577;52.410;13.242;2022-12-29T01:03:29;-12438.13;;;6.14;100.00
70925;BME280;58577;52.410;13.242;2022-12-29T01:06:15;-12438.84;;;6.18;100.00
70925;BME280;58577;52.410;13.242;2022-12-29T01:09:02;-12439.09;;;6.20;100.00
70925;BME280;58577;52.410;13.242;2022-12-29T01:12:08;-12438.13;;;6.14;100.00
70925;BME280;58577;52.410;13.242;2022-12-29T01:14:54;-12440.38;;;6.27;100.00
70925;BME280;58577;52.410;13.242;2022-12-29T01:17:40;-12440.72;;;6.29;100.00
70925;BME280;58577;52.410;13.242;2022-12-29T01:20:26;-12441.63;;;6.34;100.00
70925;BME280;58577;52.410;13.242;2022-12-29T01:23:14;-12440.66;;;6.28;100.00
70925;BME280;58577;52.410;13.242;2022-12-29T01:26:11;-12440.00;;;6.25;100.00
70925;BME280;58577;52.410;13.242;2022-12-29T01:28:57;-12441.63;;;6.34;100.00
70925;BME280;58577;52.410;13.242;2022-12-29T01:31:42;-12441.38;;;6.33;100.00
70925;BME280;58577;52.410;13.242;2022-12-29T01:34:28;-12440.66;;;6.28;100.00
70925;BME280;58577;52.410;13.242;2022-12-29T01:37:14;-12439.09;;;6.20;100.00
70925;BME280;58577;52.410;13.242;2022-12-29T01:40:00;-12439.19;;;6.20;100.00
70925;BME280;58577;52.410;13.242;2022-12-29T01:42:46;-12438.38;;;6.16;100.00
70925;BME280;58577;52.410;13.242;2022-12-29T01:45:32;-12436.50;;;6.05;100.00
70925;BME280;58577;52.410;13.242;2022-12-29T01:48:18;-12437.03;;;6.08;100.00
70925;BME280;58577;52.410;13.242;2022-12-29T01:51:05;-12437.66;;;6.12;100.00
70925;BME280;58577;52.410;13.242;2022-12-29T01:53:54;-12437.03;;;6.08;100.00
70925;BME280;58577;52.410;13.242;2022-12-29T01:56:42;-12436.03;;;6.02;100.00
70925;BME280;58577;52.410;13.242;2022-12-29T01:59:32;-12436.94;;;6.07;100.00
70925;BME280;58577;52.410;13.242;2022-12-29T02:02:18;-12437.31;;;6.09;100.00
70925;BME280;58577;52.410;13.242;2022-12-29T02:05:09;-12438.03;;;6.14;100.00
70925;BME280;58577;52.410;13.242;2022-12-29T02:07:56;-12438.38;;;6.16;100.00
70925;BME280;58577;52.410;13.242;2022-12-29T02:10:42;-12438.66;;;6.17;100.00
70925;BME280;58577;52.410;13.242;2022-12-29T02:13:29;-12439.03;;;6.19;100.00
70925;BME280;58577;52.410;13.242;2022-12-29T02:16:29;-12439.75;;;6.23;100.00
70925;BME280;58577;52.410;13.242;2022-12-29T02:22:56;-12442.34;;;6.38;100.00
70925;BME280;58577;52.410;13.242;2022-12-29T02:38:13;-12447.31;;;6.66;97.22
70925;BME280;58577;52.410;13.242;2022-12-29T02:41:21;-12446.69;;;6.63;97.43
70925;BME280;58577;52.410;13.242;2022-12-29T02:50:25;-12446.94;;;6.64;97.10
70925;BME280;58577;52.410;13.242;2022-12-29T02:53:15;-12451.97;;;6.93;94.11
70925;BME280;58577;52.410;13.242;2022-12-29T02:56:01;-12451.72;;;6.92;95.46
70925;BME280;58577;52.410;13.242;2022-12-29T02:58:47;-12455.75;;;7.15;91.62
70925;BME280;58577;52.410;13.242;2022-12-29T03:01:45;-12455.50;;;7.13;92.69
70925;BME280;58577;52.410;13.242;2022-12-29T03:13:52;-12456.66;;;7.20;92.54
70925;BME280;58577;52.410;13.242;2022-12-29T03:17:05;-12458.38;;;7.29;91.53
70925;BME280;58577;52.410;13.242;2022-12-29T03:20:03;-12457.13;;;7.22;91.75
70925;BME280;58577;52.410;13.242;2022-12-29T03:22:51;-12459.28;;;7.35;91.11
70925;BME280;58577;52.410;13.242;2022-12-29T03:25:48;-12457.38;;;7.24;92.39
70925;BME280;58577;52.410;13.242;2022-12-29T03:28:51;-12457.66;;;7.25;91.94
70925;BME280;58577;52.410;13.242;2022-12-29T03:31:43;-12458.09;;;7.28;92.14
70925;BME280;58577;52.410;13.242;2022-12-29T03:34:30;-12457.84;;;7.26;92.64
70925;BME280;58577;52.410;13.242;2022-12-29T03:37:22;-12461.44;;;7.47;91.78
70925;BME280;58577;52.410;13.242;2022-12-29T03:40:09;-12459.63;;;7.37;92.34
70925;BME280;58577;52.410;13.242;2022-12-29T03:42:55;-12460.34;;;7.41;91.62
70925;BME280;58577;52.410;13.242;2022-12-29T03:45:42;-12461.97;;;7.50;91.62
70925;BME280;58577;52.410;13.242;2022-12-29T03:48:28;-12460.25;;;7.40;92.38
70925;BME280;58577;52.410;13.242;2022-12-29T03:51:15;-12463.75;;;7.60;90.63
70925;BME280;58577;52.410;13.242;2022-12-29T03:54:00;-12463.03;;;7.56;91.46
70925;BME280;58577;52.410;13.242;2022-12-29T03:56:46;-12462.69;;;7.54;91.08
70925;BME280;58577;52.410;13.242;2022-12-29T03:59:37;-12463.69;;;7.60;90.01
70925;BME280;58577;52.410;13.242;2022-12-29T04:02:23;-12462.06;;;7.51;91.39
70925;BME280;58577;52.410;13.242;2022-12-29T04:05:09;-12463.59;;;7.59;90.29
70925;BME280;58577;52.410;13.242;2022-12-29T04:07:55;-12462.97;;;7.56;91.17
70925;BME280;58577;52.410;13.242;2022-12-29T04:10:42;-12462.69;;;7.54;91.48
70925;BME280;58577;52.410;13.242;2022-12-29T04:13:28;-12463.41;;;7.58;91.09
70925;BME280;58577;52.410;13.242;2022-12-29T04:16:14;-12465.03;;;7.67;90.10
70925;BME280;58577;52.410;13.242;2022-12-29T04:19:02;-12464.31;;;7.63;91.47
70925;BME280;58577;52.410;13.242;2022-12-29T04:21:47;-12465.19;;;7.68;90.41
70925;BME280;58577;52.410;13.242;2022-12-29T04:24:33;-12465.19;;;7.68;90.87
70925;BME280;58577;52.410;13.242;2022-12-29T04:27:19;-12464.22;;;7.63;90.79
70925;BME280;58577;52.410;13.242;2022-12-29T04:30:23;-12465.56;;;7.71;90.91
70925;BME280;58577;52.410;13.242;2022-12-29T04:33:20;-12466.72;;;7.77;89.63
70925;BME280;58577;52.410;13.242;2022-12-29T04:36:06;-12467.44;;;7.81;88.99
70925;BME280;58577;52.410;13.242;2022-12-29T04:38:53;-12467.28;;;7.80;89.37
70925;BME280;58577;52.410;13.242;2022-12-29T04:41:40;-12467.38;;;7.81;89.59
70925;BME280;58577;52.410;13.242;2022-12-29T04:44:29;-12467.38;;;7.81;89.72
70925;BME280;58577;52.410;13.242;2022-12-29T04:47:14;-12466.47;;;7.76;89.52
70925;BME280;58577;52.410;13.242;2022-12-29T04:50:05;-12467.00;;;7.79;89.50
70925;BME280;58577;52.410;13.242;2022-12-29T04:53:03;-12466.38;;;7.75;90.50
70925;BME280;58577;52.410;13.242;2022-12-29T04:55:52;-12465.75;;;7.72;91.43
70925;BME280;58577;52.410;13.242;2022-12-29T04:58:38;-12469.44;;;7.93;89.87
70925;BME280;58577;52.410;13.242;2022-12-29T05:01:24;-12468.25;;;7.86;90.30
70925;BME280;58577;52.410;13.242;2022-12-29T05:04:10;-12467.91;;;7.84;89.89
70925;BME280;58577;52.410;13.242;2022-12-29T05:06:57;-12466.72;;;7.77;91.15
70925;BME280;58577;52.410;13.242;2022-12-29T05:09:43;-12465.84;;;7.72;91.23
70925;BME280;58577;52.410;13.242;2022-12-29T05:12:31;-12466.81;;;7.78;91.92
70925;BME280;58577;52.410;13.242;2022-12-29T05:15:19;-12469.59;;;7.94;91.06
70925;BME280;58577;52.410;13.242;2022-12-29T05:18:05;-12470.94;;;8.01;90.17
70925;BME280;58577;52.410;13.242;2022-12-29T05:20:51;-12474.00;;;8.19;90.29
70925;BME280;58577;52.410;13.242;2022-12-29T05:23:38;-12471.22;;;8.03;90.58
70925;BME280;58577;52.410;13.242;2022-12-29T05:26:25;-12472.56;;;8.11;91.25
70925;BME280;58577;52.410;13.242;2022-12-29T05:29:25;-12472.56;;;8.11;90.81
70925;BME280;58577;52.410;13.242;2022-12-29T05:32:11;-12474.38;;;8.21;89.81
70925;BME280;58577;52.410;13.242;2022-12-29T05:34:57;-12475.25;;;8.26;90.12
70925;BME280;58577;52.410;13.242;2022-12-29T05:37:44;-12475.34;;;8.26;90.67
70925;BME280;58577;52.410;13.242;2022-12-29T05:40:30;-12476.88;;;8.35;89.87
70925;BME280;58577;52.410;13.242;2022-12-29T05:43:19;-12478.22;;;8.43;89.77
70925;BME280;58577;52.410;13.242;2022-12-29T05:46:32;-12478.31;;;8.43;89.20
70925;BME280;58577;52.410;13.242;2022-12-29T05:49:30;-12482.72;;;8.69;87.43
70925;BME280;58577;52.410;13.242;2022-12-29T05:52:37;-12482.81;;;8.69;87.62
70925;BME280;58577;52.410;13.242;2022-12-29T05:55:23;-12482.28;;;8.66;88.50
70925;BME280;58577;52.410;13.242;2022-12-29T05:58:12;-12483.97;;;8.76;87.91
70925;BME280;58577;52.410;13.242;2022-12-29T06:00:57;-12482.28;;;8.66;88.52
70925;BME280;58577;52.410;13.242;2022-12-29T06:03:44;-12484.88;;;8.81;87.13
70925;BME280;58577;52.410;13.242;2022-12-29T06:06:30;-12483.78;;;8.75;88.22
70925;BME280;58577;52.410;13.242;2022-12-29T06:09:16;-12484.44;;;8.78;87.68
70925;BME280;58577;52.410;13.242;2022-12-29T06:12:03;-12486.41;;;8.90;86.84
70925;BME280;58577;52.410;13.242;2022-12-29T06:14:49;-12485.50;;;8.84;88.04
70925;BME280;58577;52.410;13.242;2022-12-29T06:17:35;-12483.72;;;8.74;88.51
70925;BME280;58577;52.410;13.242;2022-12-29T06:20:21;-12484.97;;;8.81;88.08
70925;BME280;58577;52.410;13.242;2022-12-29T06:23:07;-12483.34;;;8.72;88.46
70925;BME280;58577;52.410;13.242;2022-12-29T06:25:53;-12484.06;;;8.76;88.22
70925;BME280;58577;52.410;13.242;2022-12-29T06:28:39;-12484.97;;;8.81;88.03
70925;BME280;58577;52.410;13.242;2022-12-29T06:31:25;-12483.88;;;8.75;88.30
70925;BME280;58577;52.410;13.242;2022-12-29T06:34:12;-12484.59;;;8.79;88.55
70925;BME280;58577;52.410;13.242;2022-12-29T06:36:58;-12484.50;;;8.79;88.15
70925;BME280;58577;52.410;13.242;2022-12-29T06:39:44;-12484.50;;;8.79;88.59
70925;BME280;58577;52.410;13.242;2022-12-29T06:42:31;-12484.88;;;8.81;88.83
70925;BME280;58577;52.410;13.242;2022-12-29T06:45:38;-12483.00;;;8.70;88.79
70925;BME280;58577;52.410;13.242;2022-12-29T06:48:24;-12483.16;;;8.71;88.91
70925;BME280;58577;52.410;13.242;2022-12-29T06:51:10;-12482.44;;;8.67;89.19
70925;BME280;58577;52.410;13.242;2022-12-29T06:53:55;-12482.28;;;8.66;88.95
70925;BME280;58577;52.410;13.242;2022-12-29T06:56:41;-12481.56;;;8.62;89.26
70925;BME280;58577;52.410;13.242;2022-12-29T06:59:27;-12482.53;;;8.68;88.58
70925;BME280;58577;52.410;13.242;2022-12-29T07:02:13;-12481.00;;;8.59;88.92
70925;BME280;58577;52.410;13.242;2022-12-29T07:05:00;-12480.84;;;8.58;89.11
70925;BME280;58577;52.410;13.242;2022-12-29T07:07:46;-12478.94;;;8.47;89.98
70925;BME280;58577;52.410;13.242;2022-12-29T07:10:31;-12475.81;;;8.29;91.13
70925;BME280;58577;52.410;13.242;2022-12-29T07:13:17;-12477.06;;;8.36;90.36
70925;BME280;58577;52.410;13.242;2022-12-29T07:16:09;-12479.41;;;8.50;90.21
70925;BME280;58577;52.410;13.242;2022-12-29T07:18:56;-12477.78;;;8.40;90.15
70925;BME280;58577;52.410;13.242;2022-12-29T07:21:44;-12476.88;;;8.35;90.84
70925;BME280;58577;52.410;13.242;2022-12-29T07:24:30;-12477.34;;;8.38;90.94
70925;BME280;58577;52.410;13.242;2022-12-29T07:27:16;-12476.97;;;8.36;90.96
70925;BME280;58577;52.410;13.242;2022-12-29T07:30:01;-12475.72;;;8.28;91.53
70925;BME280;58577;52.410;13.242;2022-12-29T07:32:47;-12479.03;;;8.48;90.70
70925;BME280;58577;52.410;13.242;2022-12-29T07:35:34;-12478.59;;;8.45;90.78
70925;BME280;58577;52.410;13.242;2022-12-29T07:38:20;-12477.78;;;8.40;90.57
70925;BME280;58577;52.410;13.242;2022-12-29T07:41:06;-12479.03;;;8.48;90.95
70925;BME280;58577;52.410;13.242;2022-12-29T07:43:51;-12477.97;;;8.41;91.36
70925;BME280;58577;52.410;13.242;2022-12-29T07:47:00;-12478.06;;;8.42;91.21
70925;BME280;58577;52.410;13.242;2022-12-29T07:49:46;-12479.75;;;8.52;91.25
70925;BME280;58577;52.410;13.242;2022-12-29T07:52:32;-12480.47;;;8.56;90.57
70925;BME280;58577;52.410;13.242;2022-12-29T07:55:18;-12480.03;;;8.53;91.13
70925;BME280;58577;52.410;13.242;2022-12-29T07:58:04;-12481.19;;;8.60;90.32
70925;BME280;58577;52.410;13.242;2022-12-29T08:00:56;-12481.00;;;8.59;90.77
70925;BME280;58577;52.410;13.242;2022-12-29T08:03:42;-12482.00;;;8.64;90.31
70925;BME280;58577;52.410;13.242;2022-12-29T08:06:27;-12482.91;;;8.70;90.03
70925;BME280;58577;52.410;13.242;2022-12-29T08:09:15;-12483.06;;;8.71;90.10
70925;BME280;58577;52.410;13.242;2022-12-29T08:12:01;-12483.78;;;8.75;90.01
70925;BME280;58577;52.410;13.242;2022-12-29T08:14:47;-12486.03;;;8.88;88.73
70925;BME280;58577;52.410;13.242;2022-12-29T08:17:33;-12486.94;;;8.93;88.71
70925;BME280;58577;52.410;13.242;2022-12-29T08:20:19;-12487.75;;;8.97;88.02
70925;BME280;58577;52.410;13.242;2022-12-29T08:23:05;-12487.13;;;8.94;89.66
70925;BME280;58577;52.410;13.242;2022-12-29T08:25:59;-12487.28;;;8.95;88.91
70925;BME280;58577;52.410;13.242;2022-12-29T08:28:45;-12488.38;;;9.01;87.88
70925;BME280;58577;52.410;13.242;2022-12-29T08:31:31;-12486.75;;;8.92;88.43
70925;BME280;58577;52.410;13.242;2022-12-29T08:34:17;-12486.41;;;8.90;89.02
70925;BME280;58577;52.410;13.242;2022-12-29T08:37:03;-12486.22;;;8.89;88.62
70925;BME280;58577;52.410;13.242;2022-12-29T08:39:49;-12485.88;;;8.87;89.48
70925;BME280;58577;52.410;13.242;2022-12-29T08:42:35;-12486.03;;;8.88;89.34
70925;BME280;58577;52.410;13.242;2022-12-29T08:45:20;-12490.53;;;9.13;88.66
70925;BME280;58577;52.410;13.242;2022-12-29T08:48:06;-12504.94;;;9.96;83.93
70925;BME280;58577;52.410;13.242;2022-12-29T08:50:52;-12510.22;;;10.26;81.08
70925;BME280;58577;52.410;13.242;2022-12-29T08:53:38;-12500.47;;;9.70;83.65
70925;BME280;58577;52.410;13.242;2022-12-29T08:56:24;-12493.66;;;9.31;86.09
70925;BME280;58577;52.410;13.242;2022-12-29T08:59:13;-12497.97;;;9.56;86.38
70925;BME280;58577;52.410;13.242;2022-12-29T09:02:01;-12501.19;;;9.74;85.48
70925;BME280;58577;52.410;13.242;2022-12-29T09:04:47;-12503.16;;;9.86;83.42
70925;BME280;58577;52.410;13.242;2022-12-29T09:07:33;-12506.75;;;10.06;82.55
70925;BME280;58577;52.410;13.242;2022-12-29T09:10:18;-12508.97;;;10.19;81.56
70925;BME280;58577;52.410;13.242;2022-12-29T09:13:04;-12502.53;;;9.82;83.58
70925;BME280;58577;52.410;13.242;2022-12-29T09:15:57;-12501.47;;;9.76;84.16
70925;BME280;58577;52.410;13.242;2022-12-29T09:18:44;-12502.81;;;9.83;83.54
70925;BME280;58577;52.410;13.242;2022-12-29T09:21:31;-12506.28;;;10.03;82.97
70925;BME280;58577;52.410;13.242;2022-12-29T09:24:17;-12508.97;;;10.19;82.27
70925;BME280;58577;52.410;13.242;2022-12-29T09:27:02;-12511.66;;;10.34;81.38
70925;BME280;58577;52.410;13.242;2022-12-29T09:29:48;-12513.63;;;10.46;81.28
70925;BME280;58577;52.410;13.242;2022-12-29T09:32:34;-12510.22;;;10.26;81.48
70925;BME280;58577;52.410;13.242;2022-12-29T09:35:20;-12506.84;;;10.07;83.40
70925;BME280;58577;52.410;13.242;2022-12-29T09:38:06;-12506.66;;;10.06;82.84
70925;BME280;58577;52.410;13.242;2022-12-29T09:40:55;-12513.47;;;10.45;82.38
70925;BME280;58577;52.410;13.242;2022-12-29T09:44:06;-12518.38;;;10.73;80.04
70925;BME280;58577;52.410;13.242;2022-12-29T09:46:54;-12528.22;;;11.29;78.18
70925;BME280;58577;52.410;13.242;2022-12-29T09:49:48;-12526.97;;;11.22;78.54
70925;BME280;58577;52.410;13.242;2022-12-29T09:52:39;-12525.16;;;11.12;78.71
70925;BME280;58577;52.410;13.242;2022-12-29T09:55:36;-12525.44;;;11.13;79.33
70925;BME280;58577;52.410;13.242;2022-12-29T10:01:36;-12530.81;;;11.44;77.54
70925;BME280;58577;52.410;13.242;2022-12-29T10:04:26;-12541.88;;;12.08;74.42
70925;BME280;58577;52.410;13.242;2022-12-29T10:10:06;-12562.47;;;13.26;71.57
70925;BME280;58577;52.410;13.242;2022-12-29T10:16:25;-12572.44;;;13.84;68.53
70925;BME280;58577;52.410;13.242;2022-12-29T10:19:26;-12579.81;;;14.26;65.89
70925;BME280;58577;52.410;13.242;2022-12-29T10:22:32;-12573.16;;;13.88;68.33
70925;BME280;58577;52.410;13.242;2022-12-29T10:25:25;-12578.03;;;14.16;65.46
70925;BME280;58577;52.410;13.242;2022-12-29T10:28:21;-12568.06;;;13.59;66.96
70925;BME280;58577;52.410;13.242;2022-12-29T10:31:22;-12575.63;;;14.02;66.53
70925;BME280;58577;52.410;13.242;2022-12-29T10:34:22;-12555.88;;;12.88;71.34
70925;BME280;58577;52.410;13.242;2022-12-29T10:43:32;-12537.31;;;11.81;75.18
70925;BME280;58577;52.410;13.242;2022-12-29T10:46:20;-12536.59;;;11.77;74.97
70925;BME280;58577;52.410;13.242;2022-12-29T10:49:14;-12533.56;;;11.60;77.07
70925;BME280;58577;52.410;13.242;2022-12-29T10:52:02;-12531.25;;;11.47;77.10
70925;BME280;58577;52.410;13.242;2022-12-29T10:54:51;-12530.44;;;11.42;78.27
70925;BME280;58577;52.410;13.242;2022-12-29T10:57:43;-12529.53;;;11.37;78.12
70925;BME280;58577;52.410;13.242;2022-12-29T11:00:30;-12527.13;;;11.23;77.80
70925;BME280;58577;52.410;13.242;2022-12-29T11:03:44;-12527.59;;;11.26;78.21
70925;BME280;58577;52.410;13.242;2022-12-29T11:06:31;-12526.78;;;11.21;79.59
70925;BME280;58577;52.410;13.242;2022-12-29T11:09:24;-12527.03;;;11.23;78.71
70925;BME280;58577;52.410;13.242;2022-12-29T11:12:29;-12525.09;;;11.11;79.90
70925;BME280;58577;52.410;13.242;2022-12-29T11:15:16;-12523.19;;;11.00;82.33
70925;BME280;58577;52.410;13.242;2022-12-29T11:18:01;-12520.25;;;10.84;83.92
70925;BME280;58577;52.410;13.242;2022-12-29T11:20:52;-12517.31;;;10.67;84.95
70925;BME280;58577;52.410;13.242;2022-12-29T11:23:40;-12516.22;;;10.60;85.84
70925;BME280;58577;52.410;13.242;2022-12-29T11:26:27;-12514.97;;;10.53;86.75
70925;BME280;58577;52.410;13.242;2022-12-29T11:32:17;-12511.66;;;10.34;91.30
70925;BME280;58577;52.410;13.242;2022-12-29T11:35:04;-12506.75;;;10.06;93.54
70925;BME280;58577;52.410;13.242;2022-12-29T11:37:56;-12505.50;;;9.99;95.35
70925;BME280;58577;52.410;13.242;2022-12-29T11:40:43;-12503.78;;;9.89;96.49
70925;BME280;58577;52.410;13.242;2022-12-29T11:43:33;-12503.34;;;9.87;96.84
70925;BME280;58577;52.410;13.242;2022-12-29T11:46:24;-12502.00;;;9.79;97.29
70925;BME280;58577;52.410;13.242;2022-12-29T11:49:13;-12501.91;;;9.78;98.59
70925;BME280;58577;52.410;13.242;2022-12-29T11:52:06;-12499.50;;;9.64;100.00
70925;BME280;58577;52.410;13.242;2022-12-29T11:54:53;-12496.97;;;9.50;100.00
70925;BME280;58577;52.410;13.242;2022-12-29T11:57:41;-12491.69;;;9.20;100.00
70925;BME280;58577;52.410;13.242;2022-12-29T12:00:28;-12487.28;;;8.95;100.00
70925;BME280;58577;52.410;13.242;2022-12-29T12:03:21;-12484.25;;;8.77;100.00
70925;BME280;58577;52.410;13.242;2022-12-29T12:06:12;-12483.34;;;8.72;100.00
70925;BME280;58577;52.410;13.242;2022-12-29T12:09:04;-12482.28;;;8.66;100.00
70925;BME280;58577;52.410;13.242;2022-12-29T12:11:52;-12481.56;;;8.62;100.00
70925;BME280;58577;52.410;13.242;2022-12-29T12:14:46;-12481.19;;;8.60;100.00
70925;BME280;58577;52.410;13.242;2022-12-29T12:21:20;-12479.41;;;8.50;100.00
70925;BME280;58577;52.410;13.242;2022-12-29T12:27:20;-12478.31;;;8.43;100.00
70925;BME280;58577;52.410;13.242;2022-12-29T12:30:19;-12476.53;;;8.33;100.00
70925;BME280;58577;52.410;13.242;2022-12-29T12:33:30;-12477.06;;;8.36;100.00
70925;BME280;58577;52.410;13.242;2022-12-29T12:45:52;-12473.19;;;8.14;100.00
70925;BME280;58577;52.410;13.242;2022-12-29T13:10:33;-12479.22;;;8.49;100.00
70925;BME280;58577;52.410;13.242;2022-12-29T13:22:07;-12475.81;;;8.29;100.00
70925;BME280;58577;52.410;13.242;2022-12-29T13:25:19;-12474.00;;;8.19;100.00
70925;BME280;58577;52.410;13.242;2022-12-29T13:28:25;-12474.38;;;8.21;100.00
70925;BME280;58577;52.410;13.242;2022-12-29T13:36:59;-12472.66;;;8.11;100.00
70925;BME280;58577;52.410;13.242;2022-12-29T13:39:49;-12472.13;;;8.08;100.00
70925;BME280;58577;52.410;13.242;2022-12-29T13:42:37;-12471.59;;;8.05;100.00
70925;BME280;58577;52.410;13.242;2022-12-29T13:45:24;-12471.59;;;8.05;100.00
70925;BME280;58577;52.410;13.242;2022-12-29T13:48:26;-12472.03;;;8.07;100.00
70925;BME280;58577;52.410;13.242;2022-12-29T13:51:17;-12473.13;;;8.14;100.00
70925;BME280;58577;52.410;13.242;2022-12-29T13:54:17;-12472.66;;;8.11;100.00
70925;BME280;58577;52.410;13.242;2022-12-29T13:57:38;-12472.56;;;8.11;100.00
70925;BME280;58577;52.410;13.242;2022-12-29T14:00:38;-12471.59;;;8.05;100.00
70925;BME280;58577;52.410;13.242;2022-12-29T14:03:50;-12472.22;;;8.08;100.00
70925;BME280;58577;52.410;13.242;2022-12-29T14:06:37;-12472.56;;;8.11;100.00
70925;BME280;58577;52.410;13.242;2022-12-29T14:09:48;-12470.06;;;7.96;100.00
70925;BME280;58577;52.410;13.242;2022-12-29T14:12:40;-12468.97;;;7.90;100.00
70925;BME280;58577;52.410;13.242;2022-12-29T14:15:27;-12469.06;;;7.91;100.00
70925;BME280;58577;52.410;13.242;2022-12-29T14:18:19;-12468.97;;;7.90;100.00
70925;BME280;58577;52.410;13.242;2022-12-29T14:23:52;-12467.28;;;7.80;100.00
70925;BME280;58577;52.410;13.242;2022-12-29T14:26:39;-12466.81;;;7.78;100.00
70925;BME280;58577;52.410;13.242;2022-12-29T14:35:38;-12463.59;;;7.59;100.00
70925;BME280;58577;52.410;13.242;2022-12-29T14:38:27;-12463.59;;;7.59;100.00
70925;BME280;58577;52.410;13.242;2022-12-29T14:41:39;-12463.03;;;7.56;100.00
70925;BME280;58577;52.410;13.242;2022-12-29T14:44:26;-12461.06;;;7.45;100.00
70925;BME280;58577;52.410;13.242;2022-12-29T14:47:19;-12461.34;;;7.46;100.00
70925;BME280;58577;52.410;13.242;2022-12-29T14:50:11;-12462.16;;;7.51;100.00
70925;BME280;58577;52.410;13.242;2022-12-29T14:53:01;-12461.88;;;7.50;100.00
70925;BME280;58577;52.410;13.242;2022-12-29T14:55:55;-12459.81;;;7.38;100.00
70925;BME280;58577;52.410;13.242;2022-12-29T14:59:01;-12459.44;;;7.36;100.00
70925;BME280;58577;52.410;13.242;2022-12-29T15:01:52;-12460.53;;;7.42;100.00
70925;BME280;58577;52.410;13.242;2022-12-29T15:04:38;-12459.91;;;7.38;100.00
70925;BME280;58577;52.410;13.242;2022-12-29T15:07:26;-12459.09;;;7.34;100.00
70925;BME280;58577;52.410;13.242;2022-12-29T15:10:15;-12461.25;;;7.46;100.00
70925;BME280;58577;52.410;13.242;2022-12-29T15:13:09;-12459.81;;;7.38;100.00
70925;BME280;58577;52.410;13.242;2022-12-29T15:16:00;-12459.91;;;7.38;100.00
70925;BME280;58577;52.410;13.242;2022-12-29T15:18:45;-12459.09;;;7.34;100.00
70925;BME280;58577;52.410;13.242;2022-12-29T15:21:34;-12458.72;;;7.32;100.00
70925;BME280;58577;52.410;13.242;2022-12-29T15:24:20;-12457.28;;;7.23;100.00
70925;BME280;58577;52.410;13.242;2022-12-29T15:27:06;-12457.66;;;7.25;100.00
70925;BME280;58577;52.410;13.242;2022-12-29T15:30:00;-12456.03;;;7.16;100.00
70925;BME280;58577;52.410;13.242;2022-12-29T15:32:48;-12454.97;;;7.10;100.00
70925;BME280;58577;52.410;13.242;2022-12-29T15:35:36;-12453.34;;;7.01;100.00
70925;BME280;58577;52.410;13.242;2022-12-29T15:38:28;-12452.78;;;6.98;100.00
70925;BME280;58577;52.410;13.242;2022-12-29T15:41:32;-12450.63;;;6.85;100.00
70925;BME280;58577;52.410;13.242;2022-12-29T15:44:43;-12449.03;;;6.76;100.00
70925;BME280;58577;52.410;13.242;2022-12-29T15:47:30;-12448.75;;;6.75;100.00
70925;BME280;58577;52.410;13.242;2022-12-29T15:50:28;-12446.22;;;6.60;100.00
70925;BME280;58577;52.410;13.242;2022-12-29T15:53:23;-12446.03;;;6.59;100.00
70925;BME280;58577;52.410;13.242;2022-12-29T15:56:13;-12445.41;;;6.56;100.00
70925;BME280;58577;52.410;13.242;2022-12-29T15:59:00;-12445.78;;;6.58;100.00
70925;BME280;58577;52.410;13.242;2022-12-29T16:01:46;-12446.22;;;6.60;100.00
70925;BME280;58577;52.410;13.242;2022-12-29T16:04:32;-12444.97;;;6.53;100.00
70925;BME280;58577;52.410;13.242;2022-12-29T16:10:37;-12446.59;;;6.62;100.00
70925;BME280;58577;52.410;13.242;2022-12-29T16:13:34;-12447.22;;;6.66;100.00
70925;BME280;58577;52.410;13.242;2022-12-29T16:16:28;-12447.56;;;6.68;100.00
70925;BME280;58577;52.410;13.242;2022-12-29T16:19:26;-12447.22;;;6.66;100.00
70925;BME280;58577;52.410;13.242;2022-12-29T16:22:33;-12447.66;;;6.68;100.00
70925;BME280;58577;52.410;13.242;2022-12-29T16:28:36;-12448.75;;;6.75;100.00
70925;BME280;58577;52.410;13.242;2022-12-29T16:31:36;-12447.75;;;6.69;100.00
70925;BME280;58577;52.410;13.242;2022-12-29T16:37:40;-12449.38;;;6.78;100.00
70925;BME280;58577;52.410;13.242;2022-12-29T16:40:30;-12448.94;;;6.76;100.00
70925;BME280;58577;52.410;13.242;2022-12-29T16:43:22;-12452.06;;;6.94;100.00
70925;BME280;58577;52.410;13.242;2022-12-29T16:46:18;-12449.03;;;6.76;100.00
70925;BME280;58577;52.410;13.242;2022-12-29T16:49:16;-12450.00;;;6.82;100.00